Time;durP1;ratioP1;P1;durP2;ratioP2;P2;SDS_P1;SDS_P2;PMS_P1;PMS_P2;Temp;Humidity;BMP_temperature;BMP_pressure;BME280_temperature;BME280_humidity;BME280_pressure;Samples;Min_cycle;Max_cycle;Signal;HPM_P1;HPM_P2
2023/04/28 00:04:02;;;;;;;3.00;1.60;;;;;;;;;;10174982;29;20048;-84
2023/04/28 00:09:06;;;;;;;4.45;1.95;;;;;;;;;;10179402;29;20465;-83
2023/04/28 00:14:10;;;;;;;4.32;2.10;;;;;;;;;;10177946;29;20044;-85
2023/04/28 00:19:14;;;;;;;2.10;1.33;;;;;;;;;;10179955;29;20048;-85
2023/04/28 00:24:17;;;;;;;3.35;1.27;;;;;;;;;;10171221;29;20147;-86
2023/04/28 00:29:20;;;;;;;1.33;0.80;;;;;;;;;;10181989;29;20044;-85
2023/04/28 00:34:24;;;;;;;1.83;1.27;;;;;;;;;;10180375;29;20052;-83
2023/04/28 00:39:27;;;;;;;1.65;0.90;;;;;;;;;;10180317;29;20215;-83
2023/04/28 00:44:30;;;;;;;1.23;0.88;;;;;;;;;;10177162;29;20055;-83
2023/04/28 00:49:34;;;;;;;2.95;1.42;;;;;;;;;;10171054;29;20115;-83
2023/04/28 00:54:37;;;;;;;1.55;1.10;;;;;;;;;;10179275;29;20477;-83
2023/04/28 00:59:41;;;;;;;2.40;0.95;;;;;;;;;;10177955;29;20147;-82
2023/04/28 01:04:45;;;;;;;2.85;1.55;;;;;;;;;;10187811;29;20042;-83
2023/04/28 01:09:48;;;;;;;1.75;1.13;;;;;;;;;;10183290;29;20054;-84
2023/04/28 01:14:50;;;;;;;1.70;1.17;;;;;;;;;;10182675;29;20106;-82
2023/04/28 01:19:54;;;;;;;4.90;1.90;;;;;;;;;;10182414;29;20450;-83
2023/04/28 01:24:59;;;;;;;;;;;;;;;;;;10207576;29;20043;-82
2023/04/28 01:30:03;;;;;;;2.03;1.38;;;;;;;;;;10201909;29;19927;-82
2023/04/28 01:35:06;;;;;;;1.95;0.93;;;;;;;;;;10177616;29;20158;-82
2023/04/28 01:40:09;;;;;;;1.70;1.20;;;;;;;;;;10176617;29;20094;-83
2023/04/28 01:45:13;;;;;;;1.57;1.17;;;;;;;;;;10177935;29;20059;-83
2023/04/28 01:50:16;;;;;;;2.38;1.30;;;;;;;;;;10181064;29;20047;-85
2023/04/28 01:55:18;;;;;;;2.30;1.50;;;;;;;;;;10173393;29;20276;-85
2023/04/28 02:00:22;;;;;;;1.20;0.77;;;;;;;;;;10171720;29;20477;-84
2023/04/28 02:05:24;;;;;;;;;;;;;;;;;;10176920;29;20059;-84
2023/04/28 02:10:27;;;;;;;3.08;1.55;;;;;;;;;;10176526;29;19989;-84
2023/04/28 02:15:31;;;;;;;2.47;1.40;;;;;;;;;;10176802;29;20092;-84
2023/04/28 02:20:33;;;;;;;2.35;1.20;;;;;;;;;;10177152;29;20052;-84
2023/04/28 02:25:36;;;;;;;2.92;1.50;;;;;;;;;;10179534;29;20154;-83
2023/04/28 02:30:40;;;;;;;2.92;1.33;;;;;;;;;;10177119;29;20162;-84
2023/04/28 02:35:43;;;;;;;4.43;1.65;;;;;;;;;;10178900;29;20060;-83
2023/04/28 02:40:45;;;;;;;2.85;1.52;;;;;;;;;;10171825;29;20110;-83
2023/04/28 02:45:49;;;;;;;4.07;1.20;;;;;;;;;;10170733;29;20292;-85
2023/04/28 02:50:52;;;;;;;;;;;;;;;;;;10180171;29;20094;-84
2023/04/28 02:55:55;;;;;;;2.55;1.52;;;;;;;;;;10179720;29;20227;-83
2023/04/28 03:00:58;;;;;;;0.65;0.60;;;;;;;;;;10178710;29;20106;-82
2023/04/28 03:06:01;;;;;;;;;;;;;;;;;;10175339;29;20063;-82
2023/04/28 03:11:03;;;;;;;2.72;1.23;;;;;;;;;;10171758;29;19935;-82
2023/04/28 03:16:08;;;;;;;1.45;0.85;;;;;;;;;;10175798;29;20123;-82
2023/04/28 03:21:10;;;;;;;2.88;1.25;;;;;;;;;;10179025;29;20052;-82
2023/04/28 03:26:13;;;;;;;2.42;1.10;;;;;;;;;;10178522;29;20449;-83
2023/04/28 03:31:17;;;;;;;4.22;1.50;;;;;;;;;;10178061;29;20177;-83
2023/04/28 03:36:19;;;;;;;;;;;;;;;;;;10185297;29;20067;-83
2023/04/28 03:41:22;;;;;;;2.47;1.33;;;;;;;;;;10181399;29;19998;-82
2023/04/28 03:46:26;;;;;;;1.65;1.00;;;;;;;;;;10178442;29;20044;-83
2023/04/28 03:51:29;;;;;;;;;;;;;;;;;;10176831;29;20482;-84
2023/04/28 03:56:31;;;;;;;2.10;1.20;;;;;;;;;;10184048;29;20022;-82
2023/04/28 04:01:35;;;;;;;2.97;1.40;;;;;;;;;;10182944;29;20138;-82
2023/04/28 04:06:38;;;;;;;1.35;1.15;;;;;;;;;;10180898;29;20043;-82
2023/04/28 04:11:40;;;;;;;2.85;1.55;;;;;;;;;;10177200;29;20083;-83
2023/04/28 04:16:46;;;;;;;4.65;1.73;;;;;;;;;;10181283;29;20036;-83
2023/04/28 04:21:49;;;;;;;3.85;1.40;;;;;;;;;;10182751;29;20151;-83
2023/04/28 04:26:52;;;;;;;3.38;1.70;;;;;;;;;;10197483;29;20150;-83
2023/04/28 04:31:56;;;;;;;5.13;1.77;;;;;;;;;;10180973;29;20681;-83
2023/04/28 04:36:58;;;;;;;2.38;1.52;;;;;;;;;;10174939;29;20051;-84
2023/04/28 04:42:02;;;;;;;3.85;2.03;;;;;;;;;;10174110;29;20238;-84
2023/04/28 04:47:28;;;;;;;3.17;1.88;;;;;;;;;;10180373;29;20052;-81
2023/04/28 04:52:30;;;;;;;3.03;1.50;;;;;;;;;;10174989;29;20123;-84
2023/04/28 04:57:33;;;;;;;2.80;1.65;;;;;;;;;;10172367;29;20493;-82
2023/04/28 05:02:37;;;;;;;3.22;1.80;;;;;;;;;;10172624;29;20505;-84
2023/04/28 05:07:42;;;;;;;6.82;2.33;;;;;;;;;;10174585;29;20045;-84
2023/04/28 05:12:45;;;;;;;3.25;1.88;;;;;;;;;;10178344;29;20509;-84
2023/04/28 05:17:52;;;;;;;2.85;1.75;;;;;;;;;;10175028;29;20036;-82
2023/04/28 05:22:55;;;;;;;4.10;1.77;;;;;;;;;;10178868;29;20048;-85
2023/04/28 05:28:01;;;;;;;5.03;1.80;;;;;;;;;;10176825;29;20139;-84
2023/04/28 05:33:05;;;;;;;0.93;0.40;;;;;;;;;;10181983;29;20046;-83
2023/04/28 05:38:08;;;;;;;1.95;1.13;;;;;;;;;;10173048;29;20066;-84
2023/04/28 05:43:11;;;;;;;2.95;1.50;;;;;;;;;;10170291;29;20055;-83
2023/04/28 05:48:15;;;;;;;3.33;1.55;;;;;;;;;;10177372;29;20048;-83
2023/04/28 05:53:18;;;;;;;2.97;1.98;;;;;;;;;;10177719;29;20393;-85
2023/04/28 05:58:21;;;;;;;4.20;1.15;;;;;;;;;;10178059;29;20055;-82
2023/04/28 06:03:25;;;;;;;4.63;1.83;;;;;;;;;;10179595;29;20118;-82
2023/04/28 06:08:28;;;;;;;3.33;1.80;;;;;;;;;;10175667;29;20044;-83
2023/04/28 06:13:32;;;;;;;5.33;2.13;;;;;;;;;;10179831;29;20051;-83
2023/04/28 06:18:36;;;;;;;3.53;1.43;;;;;;;;;;10174358;29;20051;-84
2023/04/28 06:23:39;;;;;;;2.25;1.30;;;;;;;;;;10179052;29;20310;-84
2023/04/28 06:28:42;;;;;;;0.80;0.65;;;;;;;;;;10173853;29;20044;-84
2023/04/28 06:33:46;;;;;;;2.13;1.35;;;;;;;;;;10178086;29;20052;-83
2023/04/28 06:38:49;;;;;;;0.93;0.80;;;;;;;;;;10176586;29;20229;-84
2023/04/28 06:43:51;;;;;;;3.33;1.48;;;;;;;;;;10195253;29;20037;-82
2023/04/28 06:48:56;;;;;;;1.40;0.77;;;;;;;;;;10208339;29;20048;-84
2023/04/28 06:53:59;;;;;;;1.27;0.88;;;;;;;;;;10196447;29;20036;-84
2023/04/28 06:59:02;;;;;;;1.60;0.95;;;;;;;;;;10182384;29;20260;-83
2023/04/28 07:04:08;;;;;;;3.67;2.15;;;;;;;;;;10180407;29;20038;-82
2023/04/28 07:09:11;;;;;;;5.20;1.42;;;;;;;;;;10181262;29;20051;-83
2023/04/28 07:14:14;;;;;;;2.00;1.40;;;;;;;;;;10179922;29;20098;-84
2023/04/28 07:19:19;;;;;;;1.48;1.05;;;;;;;;;;10178701;29;20425;-83
2023/04/28 07:24:23;;;;;;;1.80;1.15;;;;;;;;;;10182445;29;20044;-83
2023/04/28 07:29:27;;;;;;;4.20;1.60;;;;;;;;;;10180227;29;20067;-84
2023/04/28 07:34:32;;;;;;;1.55;0.95;;;;;;;;;;10175620;29;20245;-84
2023/04/28 07:39:34;;;;;;;0.70;0.55;;;;;;;;;;10179121;29;20052;-84
2023/04/28 07:44:37;;;;;;;0.90;0.77;;;;;;;;;;10179715;29;20144;-84
2023/04/28 07:49:41;;;;;;;3.00;1.60;;;;;;;;;;10175565;29;20517;-83
2023/04/28 07:54:43;;;;;;;;;;;;;;;;;;10188321;29;20443;-82
2023/04/28 07:59:46;;;;;;;2.28;1.42;;;;;;;;;;10172741;29;19927;-83
2023/04/28 08:04:50;;;;;;;1.85;1.10;;;;;;;;;;10180697;29;20044;-83
2023/04/28 08:09:54;;;;;;;0.73;0.50;;;;;;;;;;10174045;29;20039;-82
2023/04/28 08:14:57;;;;;;;1.58;1.15;;;;;;;;;;10176304;29;20508;-82
2023/04/28 08:20:01;;;;;;;4.70;1.70;;;;;;;;;;10171452;29;20047;-83
2023/04/28 08:25:05;;;;;;;2.67;1.63;;;;;;;;;;10172296;29;20127;-82
2023/04/28 08:30:07;;;;;;;;;;;;;;;;;;10176426;29;20497;-83
2023/04/28 08:35:11;;;;;;;2.85;1.17;;;;;;;;;;10171062;29;20671;-82
2023/04/28 08:40:14;;;;;;;;;;;;;;;;;;10173914;29;20058;-83
2023/04/28 08:45:17;;;;;;;3.55;0.98;;;;;;;;;;10172995;29;19950;-82
2023/04/28 08:50:22;;;;;;;3.25;1.63;;;;;;;;;;10179946;29;20573;-82
2023/04/28 08:55:24;;;;;;;3.78;1.40;;;;;;;;;;10175710;29;20043;-81
2023/04/28 09:00:27;;;;;;;4.45;1.92;;;;;;;;;;10175123;29;20050;-81
2023/04/28 09:05:31;;;;;;;5.40;1.08;;;;;;;;;;10176805;29;20048;-81
2023/04/28 09:10:34;;;;;;;1.63;1.10;;;;;;;;;;10173413;29;20055;-81
2023/04/28 09:15:39;;;;;;;1.75;1.23;;;;;;;;;;10171429;29;20115;-82
2023/04/28 09:20:44;;;;;;;2.17;0.77;;;;;;;;;;10170717;29;20508;-80
2023/04/28 09:26:00;;;;;;;2.60;1.30;;;;;;;;;;10171650;29;20630;-82
2023/04/28 09:31:02;;;;;;;2.00;1.05;;;;;;;;;;10166070;29;20043;-82
2023/04/28 09:36:08;;;;;;;2.78;1.35;;;;;;;;;;10171215;29;20354;-80
2023/04/28 09:41:10;;;;;;;2.22;1.58;;;;;;;;;;10171976;29;20040;-81
2023/04/28 09:46:28;;;;;;;1.98;1.27;;;;;;;;;;10177782;29;20401;-82
2023/04/28 09:51:33;;;;;;;7.07;1.40;;;;;;;;;;10177534;29;20517;-83
2023/04/28 09:56:37;;;;;;;4.05;1.48;;;;;;;;;;10174278;29;20040;-81
2023/04/28 10:01:43;;;;;;;2.78;1.20;;;;;;;;;;10176648;29;20075;-82
2023/04/28 10:06:48;;;;;;;3.80;1.58;;;;;;;;;;10172004;29;20071;-81
2023/04/28 10:11:51;;;;;;;1.98;1.15;;;;;;;;;;10181015;29;20560;-81
2023/04/28 10:16:54;;;;;;;3.47;1.20;;;;;;;;;;10168399;29;20489;-79
2023/04/28 10:22:05;;;;;;;3.70;0.82;;;;;;;;;;10170057;29;20119;-79
2023/04/28 10:27:08;;;;;;;1.52;0.98;;;;;;;;;;10170204;29;20163;-79
2023/04/28 10:32:19;;;;;;;1.58;0.85;;;;;;;;;;10167640;29;20048;-80
2023/04/28 10:37:50;;;;;;;5.10;1.88;;;;;;;;;;10178973;29;20051;-79
2023/04/28 10:42:55;;;;;;;4.68;0.63;;;;;;;;;;10168577;29;20092;-79
2023/04/28 10:48:04;;;;;;;2.10;1.00;;;;;;;;;;10180223;29;20071;-82
2023/04/28 10:53:09;;;;;;;1.35;0.80;;;;;;;;;;10177598;29;20127;-79
2023/04/28 10:58:30;;;;;;;4.20;0.68;;;;;;;;;;10177113;29;20127;-80
2023/04/28 11:03:45;;;;;;;1.48;0.68;;;;;;;;;;10175444;29;20036;-79
2023/04/28 11:08:49;;;;;;;0.77;0.50;;;;;;;;;;10169730;29;20048;-80
2023/04/28 11:13:53;;;;;;;1.20;0.80;;;;;;;;;;10179527;29;20043;-80
2023/04/28 11:18:57;;;;;;;3.30;0.60;;;;;;;;;;10176520;29;20092;-80
2023/04/28 11:24:08;;;;;;;1.00;0.52;;;;;;;;;;10177461;29;20207;-80
2023/04/28 11:29:11;;;;;;;0.60;0.52;;;;;;;;;;10178498;29;20055;-81
2023/04/28 11:34:18;;;;;;;1.67;0.77;;;;;;;;;;10171393;29;20058;-80
2023/04/28 11:39:28;;;;;;;0.93;0.80;;;;;;;;;;10176043;29;20336;-81
2023/04/28 11:44:31;;;;;;;1.52;0.98;;;;;;;;;;10176664;29;20036;-81
2023/04/28 11:49:41;;;;;;;1.27;0.43;;;;;;;;;;10176482;29;20071;-83
2023/04/28 11:54:45;;;;;;;1.17;0.85;;;;;;;;;;10185550;29;20084;-83
2023/04/28 11:59:48;;;;;;;0.80;0.60;;;;;;;;;;10194395;29;20544;-82
2023/04/28 12:04:51;;;;;;;0.43;0.43;;;;;;;;;;10196639;29;20047;-82
2023/04/28 12:10:09;;;;;;;3.63;0.77;;;;;;;;;;10196731;29;20035;-82
2023/04/28 12:15:13;;;;;;;1.05;0.70;;;;;;;;;;10207272;29;20056;-82
2023/04/28 12:20:31;;;;;;;2.05;0.80;;;;;;;;;;10204851;29;20043;-81
2023/04/28 12:25:34;;;;;;;2.25;0.65;;;;;;;;;;10197620;29;20190;-84
2023/04/28 12:30:40;;;;;;;2.05;0.60;;;;;;;;;;10191934;29;20043;-84
2023/04/28 12:35:44;;;;;;;1.70;1.00;;;;;;;;;;10194507;29;20048;-84
2023/04/28 12:40:47;;;;;;;3.53;1.50;;;;;;;;;;10189134;29;20044;-83
2023/04/28 12:45:52;;;;;;;1.02;0.77;;;;;;;;;;10184982;29;20107;-82
2023/04/28 12:50:55;;;;;;;1.20;0.50;;;;;;;;;;10185309;29;20075;-83
2023/04/28 12:55:58;;;;;;;0.43;0.43;;;;;;;;;;10186922;29;20051;-84
2023/04/28 13:01:03;;;;;;;1.10;0.77;;;;;;;;;;10174873;29;20055;-83
2023/04/28 13:06:06;;;;;;;1.42;0.80;;;;;;;;;;10188791;29;20040;-83
2023/04/28 13:11:10;;;;;;;1.58;0.80;;;;;;;;;;10184909;29;20134;-82
2023/04/28 13:16:27;;;;;;;2.47;0.93;;;;;;;;;;10181914;29;20062;-83
2023/04/28 13:21:30;;;;;;;0.63;0.28;;;;;;;;;;10173052;29;20123;-83
2023/04/28 13:26:38;;;;;;;1.48;0.70;;;;;;;;;;10185886;29;20138;-84
2023/04/28 13:31:42;;;;;;;1.23;0.52;;;;;;;;;;10172016;29;20506;-84
2023/04/28 13:36:46;;;;;;;1.40;0.43;;;;;;;;;;10172946;29;20044;-84
2023/04/28 13:41:49;;;;;;;0.57;0.50;;;;;;;;;;10176669;29;20345;-84
2023/04/28 13:46:54;;;;;;;0.67;0.40;;;;;;;;;;10171132;29;20048;-83
2023/04/28 13:51:56;;;;;;;0.30;0.25;;;;;;;;;;10179856;29;20044;-84
2023/04/28 13:57:00;;;;;;;0.40;0.35;;;;;;;;;;10176411;29;20047;-85
2023/04/28 14:02:04;;;;;;;3.80;0.63;;;;;;;;;;10187431;29;20087;-85
2023/04/28 14:07:08;;;;;;;0.90;0.60;;;;;;;;;;10174609;29;20059;-86
2023/04/28 14:12:12;;;;;;;1.08;0.70;;;;;;;;;;10176295;29;20176;-88
2023/04/28 14:17:16;;;;;;;1.55;0.55;;;;;;;;;;10183300;29;20056;-87
2023/04/28 14:22:19;;;;;;;0.68;0.40;;;;;;;;;;10179442;29;20043;-91
2023/04/28 14:27:22;;;;;;;0.75;0.40;;;;;;;;;;10177951;29;20032;-88
2023/04/28 14:32:30;;;;;;;0.88;0.50;;;;;;;;;;10179605;29;20044;-92
2023/04/28 14:37:37;;;;;;;0.60;0.40;;;;;;;;;;10195480;29;20036;-94
2023/04/28 14:48:31;;;;;;;0.55;0.50;;;;;;;;;;10189269;29;20214;-92
2023/04/28 14:59:35;;;;;;;0.60;0.60;;;;;;;;;;10191413;29;20047;-94
2023/04/28 15:04:39;;;;;;;0.63;0.60;;;;;;;;;;10190021;29;20043;-92
2023/04/28 15:09:42;;;;;;;0.73;0.28;;;;;;;;;;10186039;29;20051;-92
2023/04/28 15:15:06;;;;;;;2.17;0.60;;;;;;;;;;10184812;29;20058;-91
2023/04/28 15:20:24;;;;;;;1.87;0.70;;;;;;;;;;10194719;29;20043;-91
2023/04/28 15:25:34;;;;;;;1.70;0.93;;;;;;;;;;10187127;29;20410;-89
2023/04/28 15:30:53;;;;;;;2.00;1.00;;;;;;;;;;10190003;29;20102;-90
2023/04/28 15:35:58;;;;;;;1.85;1.15;;;;;;;;;;10209417;29;20028;-90
2023/04/28 15:41:05;;;;;;;2.60;1.00;;;;;;;;;;10231170;28;20052;-92
2023/04/28 15:46:16;;;;;;;1.92;1.05;;;;;;;;;;10196049;29;20070;-88
2023/04/28 15:51:20;;;;;;;1.45;0.90;;;;;;;;;;10217408;28;20160;-95
2023/04/28 15:56:25;;;;;;;1.35;0.80;;;;;;;;;;10222894;29;20067;-93
2023/04/28 16:01:44;;;;;;;1.40;0.60;;;;;;;;;;10221098;29;20048;-95
2023/04/28 16:06:57;;;;;;;3.55;1.02;;;;;;;;;;10205723;29;20044;-94
2023/04/28 16:12:06;;;;;;;3.33;1.30;;;;;;;;;;10218934;29;20048;-95
2023/04/28 16:17:24;;;;;;;2.08;1.10;;;;;;;;;;10198176;29;20130;-91
2023/04/28 16:22:32;;;;;;;3.38;1.60;;;;;;;;;;10196674;29;20087;-89
2023/04/28 16:27:37;;;;;;;3.70;1.58;;;;;;;;;;10200748;29;20111;-91
2023/04/28 16:32:42;;;;;;;5.88;3.00;;;;;;;;;;10188946;29;20054;-89
2023/04/28 16:37:50;;;;;;;3.63;1.77;;;;;;;;;;10190805;29;20535;-90
2023/04/28 16:43:11;;;;;;;3.97;2.47;;;;;;;;;;10186570;29;20445;-92
2023/04/28 16:48:20;;;;;;;5.03;2.28;;;;;;;;;;10191570;29;20066;-88
2023/04/28 16:53:40;;;;;;;6.28;2.33;;;;;;;;;;10234777;29;20075;-96
2023/04/28 16:58:46;;;;;;;9.75;3.28;;;;;;;;;;11585878;23;20034;-96
2023/04/28 17:03:50;;;;;;;7.70;2.75;;;;;;;;;;10225854;28;20493;-93
2023/04/28 17:08:54;;;;;;;7.43;3.05;;;;;;;;;;10215424;29;20059;-92
2023/04/28 17:13:57;;;;;;;9.82;2.65;;;;;;;;;;10226348;29;20056;-94
2023/04/28 17:19:01;;;;;;;2.63;1.33;;;;;;;;;;10236776;29;20090;-95
2023/04/28 17:24:07;;;;;;;7.15;3.30;;;;;;;;;;10245417;29;20044;-93
2023/04/28 17:29:10;;;;;;;6.80;2.10;;;;;;;;;;10251974;28;20043;-96
2023/04/28 17:34:12;;;;;;;4.50;2.17;;;;;;;;;;10218894;29;20086;-93
2023/04/28 17:39:19;;;;;;;3.90;2.03;;;;;;;;;;10238092;29;20212;-96
2023/04/28 17:44:22;;;;;;;3.97;1.98;;;;;;;;;;10217359;29;20087;-96
2023/04/28 17:49:24;;;;;;;3.85;1.83;;;;;;;;;;10225002;29;20496;-95
2023/04/28 17:54:30;;;;;;;7.80;2.43;;;;;;;;;;10796536;23;20023;-94
2023/04/28 17:59:33;;;;;;;6.78;2.72;;;;;;;;;;10242882;28;20063;-96
2023/04/28 18:04:36;;;;;;;5.57;2.70;;;;;;;;;;10246766;29;20120;-95
2023/04/28 18:09:40;;;;;;;4.07;1.85;;;;;;;;;;10243423;29;20039;-94
2023/04/28 18:14:44;;;;;;;4.80;2.45;;;;;;;;;;10232893;29;20119;-94
2023/04/28 18:25:15;;;;;;;5.43;3.20;;;;;;;;;;10210897;29;20073;-94
2023/04/28 19:18:19;;;;;;;2.38;1.70;;;;;;;;;;10557327;23;20050;-96
2023/04/28 19:23:23;;;;;;;4.68;1.90;;;;;;;;;;10310241;28;20047;-96
2023/04/28 19:28:43;;;;;;;9.07;1.70;;;;;;;;;;10323429;28;20051;-96
2023/04/28 19:34:03;;;;;;;2.10;1.20;;;;;;;;;;11591688;23;21396;31
2023/04/28 20:02:36;;;;;;;5.15;2.30;;;;;;;;;;10533936;23;20055;-94
2023/04/28 20:30:30;;;;;;;2.33;1.27;;;;;;;;;;10993220;23;20063;-96
2023/04/28 20:46:35;;;;;;;3.92;1.92;;;;;;;;;;10395456;23;20249;-94
2023/04/28 20:57:16;;;;;;;3.70;1.40;;;;;;;;;;11070349;23;20065;-96
2023/04/28 21:09:09;;;;;;;2.60;0.85;;;;;;;;;;10343863;23;20058;-92
2023/04/28 21:14:13;;;;;;;0.55;0.35;;;;;;;;;;10308521;28;20085;-90
2023/04/28 21:19:17;;;;;;;1.98;1.23;;;;;;;;;;10323740;28;20043;-90
2023/04/28 21:24:21;;;;;;;1.87;1.00;;;;;;;;;;10286926;28;20436;-91
2023/04/28 21:29:24;;;;;;;2.60;1.00;;;;;;;;;;10285590;28;20063;-89
2023/04/28 21:34:27;;;;;;;1.00;0.20;;;;;;;;;;10287968;28;20126;-91
2023/04/28 21:39:37;;;;;;;1.45;0.80;;;;;;;;;;10285649;28;20042;-91
2023/04/28 21:44:42;;;;;;;1.05;0.70;;;;;;;;;;10291868;28;20553;-94
2023/04/28 21:49:48;;;;;;;1.35;0.80;;;;;;;;;;10307954;28;20043;-90
2023/04/28 21:55:00;;;;;;;0.75;0.50;;;;;;;;;;10286988;28;20469;-91
2023/04/28 22:00:11;;;;;;;0.63;0.40;;;;;;;;;;10257661;28;20056;-90
2023/04/28 22:05:31;;;;;;;2.03;0.95;;;;;;;;;;10274088;28;20519;-92
2023/04/28 22:10:47;;;;;;;1.88;0.70;;;;;;;;;;10294384;28;20348;-90
2023/04/28 22:16:00;;;;;;;0.75;0.65;;;;;;;;;;10275443;28;20496;-90
2023/04/28 22:21:10;;;;;;;;;;;;;;;;;;10271902;28;20039;-90
2023/04/28 22:26:19;;;;;;;0.75;0.43;;;;;;;;;;10286959;28;20017;-90
2023/04/28 22:37:06;;;;;;;1.70;0.52;;;;;;;;;;10287642;28;20042;-94
2023/04/28 22:42:21;;;;;;;0.77;0.60;;;;;;;;;;10293727;28;20046;-93
2023/04/28 22:58:18;;;;;;;1.05;0.73;;;;;;;;;;10306403;28;20035;-92
2023/04/28 23:03:39;;;;;;;1.35;0.98;;;;;;;;;;10283623;28;20047;-94
2023/04/28 23:08:44;;;;;;;0.68;0.63;;;;;;;;;;10291355;28;20039;-92
2023/04/28 23:13:57;;;;;;;0.45;0.32;;;;;;;;;;10283448;28;20522;-90
2023/04/28 23:19:10;;;;;;;1.40;0.80;;;;;;;;;;10274383;28;20062;-88
2023/04/28 23:24:14;;;;;;;0.10;0.10;;;;;;;;;;10289918;28;20063;-89
2023/04/28 23:29:25;;;;;;;1.00;0.30;;;;;;;;;;10302215;28;20106;-89
2023/04/28 23:34:36;;;;;;;1.67;0.75;;;;;;;;;;10320199;28;20039;-92
2023/04/28 23:39:41;;;;;;;4.90;0.85;;;;;;;;;;10297404;28;20050;-92
2023/04/28 23:44:51;;;;;;;0.03;0.03;;;;;;;;;;10283585;28;20070;-92
2023/04/28 23:49:57;;;;;;;1.85;0.85;;;;;;;;;;10298874;28;20047;-91
2023/04/28 23:55:03;;;;;;;0.60;0.60;;;;;;;;;;10286916;28;20070;-91
